Aérodrome :
LOGIN :

S'inscrire | Disclaimer

   EN    FR    IT 

 










Légende :    VFR   VFR Marginal   IFR   IFR Intensif   IFR Très Intensif
Visi : 
Plafond : 
>= 8 km
>= 3000ft
5 à 8 km
1000 à 3000 ft
1500m à 5 km
500 à 1000 ft
800 à 1500m
200 à 500 ft
< 800m
< 200 ft
Symboles :   Orages  Brouillard  Fortes neiges  Fortes précipitations  Vent > 20 kt
SIGMETs :   Divers  Orages  Givrage  Turbulence  Onde Orograph.  Cendres Volcan.







- Altitude de l'aérodrome : 776 ft
- Code IATA : RMS


ETAR - Ramstein Air Base

DERNIER METAR :
  • 241458Z 05013KT 9999 SCT024 12/05 A3028 RMK AO2A SLP262 T01150051 55005 $

METARs EXPIRÉS :
  • 241420Z 05011KT 9999 SCT024 11/05 A3028 RMK AO2A
  • 241358Z 04012KT 9999 BKN024 11/05 A3028 RMK AO2A SLP262 T01070053 $
  • 241258Z 05012G19KT 9000 HZ BKN022 OVC180 09/05 A3028 RMK AO2A BKN022 V OVC SLP262 T00940051 $

TAF TAF ETAR
Valide du 24 à 10h jusqu'au 25 à 16h UTC


241014Z 2410/2516 05010G15KT 9999 BKN018 QNH3026INS
TEMPO 2410/2412 05015G20KT
BECMG 2411/2412 05010G20KT 9999 SCT025 BKN200 QNH3026INS
BECMG 2423/2424 06010G15KT 9999 SCT009 BKN015 QNH3030INS
TEMPO 2500/2504 05015G20KT
BECMG 2503/2504 06015G20KT 9999 BKN009 QNH3030INS
BECMG 2508/2509 06012G20KT 9999 BKN015 QNH3030INS
BECMG 2509/2510 07012G20KT 9999 SCT015 QNH3025INS TX16/2413Z TN00/2505Z
Pas de NOTAMs connus pour ce terrain.



MET'MAP, la Météo Aéronautique d'un coup d'oeil ! - Copyright ORBIFLY Décembre 2007 - Disclaimer

ORBIFLY MET'MAP TEAM :

Programmation & Développement : Alexandra Zaïnal
Conception & Développement : Baudouin d'Aumeries
Co-Programmation & Développement : Marc-Olivier Méhu
Soutien technique & logistique : Manuel Goepfert

Contact : metmap@orbifly.com




SOURCES & CREDITS :

   NOAA